createdAt,value
2022-12-27T00:01:17.768Z,-4.10
2022-12-27T00:03:46.670Z,-3.90
2022-12-27T00:06:21.503Z,-3.70
2022-12-27T00:08:49.562Z,-4.20
2022-12-27T00:11:20.799Z,-4.10
2022-12-27T00:13:48.620Z,-4.20
2022-12-27T00:16:20.646Z,-4.10
2022-12-27T00:18:49.339Z,-4.20
2022-12-27T00:21:17.565Z,-4.10
2022-12-27T00:23:47.987Z,-3.90
2022-12-27T00:26:18.096Z,-4.20
2022-12-27T00:28:46.404Z,-4.00
2022-12-27T00:31:14.091Z,-4.30
2022-12-27T00:33:43.336Z,-4.00
2022-12-27T00:36:14.565Z,-4.20
2022-12-27T00:38:42.150Z,-4.20
2022-12-27T00:41:10.048Z,-4.10
2022-12-27T00:43:37.887Z,-4.10
2022-12-27T00:46:05.517Z,-4.00
2022-12-27T00:48:33.048Z,-4.20
2022-12-27T00:51:07.674Z,-4.10
2022-12-27T00:53:36.139Z,-3.80
2022-12-27T00:56:08.963Z,-4.00
2022-12-27T00:58:40.681Z,-3.50
2022-12-27T01:01:17.491Z,-4.00
2022-12-27T01:03:45.394Z,-3.80
2022-12-27T01:06:15.481Z,-3.70
2022-12-27T01:08:43.356Z,-4.20
2022-12-27T01:11:11.599Z,-3.70
2022-12-27T01:13:40.364Z,-4.50
2022-12-27T01:16:13.264Z,-3.30
2022-12-27T01:18:40.918Z,-3.40
2022-12-27T01:21:10.811Z,-3.60
2022-12-27T01:23:39.370Z,-3.60
2022-12-27T01:26:11.260Z,-3.90
2022-12-27T01:28:38.740Z,-3.50
2022-12-27T01:31:07.965Z,-3.60
2022-12-27T01:33:36.574Z,-3.50
2022-12-27T01:36:20.035Z,-3.60
2022-12-27T01:38:48.902Z,-3.40
2022-12-27T01:41:44.550Z,-3.30
2022-12-27T01:44:40.423Z,-3.20
2022-12-27T01:47:30.938Z,-3.20
2022-12-27T01:50:16.410Z,-3.20
2022-12-27T01:52:53.619Z,-3.10
2022-12-27T01:55:45.996Z,-3.40
2022-12-27T01:58:31.022Z,-3.20
2022-12-27T02:00:59.434Z,-3.10
2022-12-27T02:03:34.595Z,-3.40
2022-12-27T02:06:04.705Z,-3.00
2022-12-27T02:08:48.992Z,-3.70
2022-12-27T02:11:17.861Z,-3.20
2022-12-27T02:13:46.784Z,-3.50
2022-12-27T02:16:17.806Z,-3.50
2022-12-27T02:18:47.169Z,-3.70
2022-12-27T02:21:46.331Z,-3.60
2022-12-27T02:24:49.493Z,-3.20
2022-12-27T02:27:49.375Z,-3.50
2022-12-27T02:30:16.972Z,-2.50
2022-12-27T02:32:46.735Z,-2.80
2022-12-27T02:35:27.242Z,-3.70
2022-12-27T02:38:00.437Z,-3.30
2022-12-27T02:40:47.984Z,-3.60
2022-12-27T02:43:35.103Z,-3.60
2022-12-27T02:46:45.706Z,-3.50
2022-12-27T02:49:51.762Z,-3.50
2022-12-27T02:52:46.669Z,-3.50
2022-12-27T02:55:32.958Z,-3.30
2022-12-27T02:58:19.470Z,-3.30
2022-12-27T03:01:12.500Z,-3.50
2022-12-27T03:03:56.574Z,-3.50
2022-12-27T03:06:42.149Z,-3.40
2022-12-27T03:09:57.854Z,-3.50
2022-12-27T03:12:53.314Z,-3.20
2022-12-27T03:15:58.241Z,-3.30
2022-12-27T03:18:47.645Z,-3.30
2022-12-27T03:21:42.744Z,-3.20
2022-12-27T03:24:38.596Z,-3.30
2022-12-27T03:27:18.030Z,-3.50
2022-12-27T03:30:10.790Z,-3.60
2022-12-27T03:33:04.937Z,-3.60
2022-12-27T03:35:36.883Z,-3.50
2022-12-27T03:38:07.821Z,-3.50
2022-12-27T03:41:05.290Z,-3.50
2022-12-27T03:43:34.870Z,-3.20
2022-12-27T03:46:34.648Z,-3.40
2022-12-27T03:49:05.544Z,-3.20
2022-12-27T03:51:59.209Z,-3.80
2022-12-27T03:54:30.712Z,-3.50
2022-12-27T03:57:01.348Z,-3.60
2022-12-27T03:59:29.176Z,-3.60
2022-12-27T04:01:57.211Z,-3.10
2022-12-27T04:04:24.597Z,-3.40
2022-12-27T04:06:52.103Z,-2.30
2022-12-27T04:09:38.619Z,-3.50
2022-12-27T04:12:25.417Z,-3.50
2022-12-27T04:15:11.728Z,-3.40
2022-12-27T04:17:57.978Z,-3.40
2022-12-27T04:20:43.993Z,-3.40
2022-12-27T04:23:30.342Z,-3.50
2022-12-27T04:26:16.666Z,-3.60
2022-12-27T04:29:02.942Z,-3.50
2022-12-27T04:31:48.996Z,-3.40
2022-12-27T04:34:35.163Z,-3.50
2022-12-27T04:37:02.642Z,-3.40
2022-12-27T04:39:30.015Z,-3.60
2022-12-27T04:42:15.995Z,-3.50
2022-12-27T04:45:02.014Z,-3.60
2022-12-27T04:47:48.821Z,-3.40
2022-12-27T04:50:50.144Z,-3.40
2022-12-27T04:53:38.443Z,-2.60
2022-12-27T04:56:06.947Z,-3.40
2022-12-27T04:58:34.664Z,-3.20
2022-12-27T05:01:22.892Z,-3.30
2022-12-27T05:03:53.401Z,-3.40
2022-12-27T05:06:21.139Z,-3.60
2022-12-27T05:09:07.703Z,-3.20
2022-12-27T05:11:53.598Z,-3.30
2022-12-27T05:14:20.950Z,-3.10
2022-12-27T05:16:48.318Z,-3.30
2022-12-27T05:19:15.655Z,-3.10
2022-12-27T05:22:05.066Z,-3.00
2022-12-27T05:24:51.991Z,-3.30
2022-12-27T05:27:19.470Z,-3.30
2022-12-27T05:29:47.545Z,-3.20
2022-12-27T05:32:14.916Z,-3.30
2022-12-27T05:34:42.419Z,-3.30
2022-12-27T05:37:09.955Z,-3.30
2022-12-27T05:39:38.772Z,-3.30
2022-12-27T05:42:08.230Z,-3.30
2022-12-27T05:44:35.593Z,-3.20
2022-12-27T05:47:03.016Z,-3.20
2022-12-27T05:49:30.423Z,-2.90
2022-12-27T05:51:57.923Z,-3.20
2022-12-27T05:54:25.371Z,-2.90
2022-12-27T05:56:53.056Z,-2.90
2022-12-27T05:59:20.469Z,-2.90
2022-12-27T06:01:48.032Z,-3.10
2022-12-27T06:04:18.440Z,-3.00
2022-12-27T06:06:45.785Z,-3.00
2022-12-27T06:09:13.141Z,-3.10
2022-12-27T06:11:40.604Z,-2.50
2022-12-27T06:14:07.914Z,-3.00
2022-12-27T06:16:35.678Z,-2.00
2022-12-27T06:19:03.090Z,-3.10
2022-12-27T06:21:30.513Z,-3.10
2022-12-27T06:23:57.852Z,-2.70
2022-12-27T06:26:27.722Z,-2.80
2022-12-27T06:28:57.290Z,-2.50
2022-12-27T06:31:25.739Z,-2.90
2022-12-27T06:33:54.837Z,-3.10
2022-12-27T06:36:27.200Z,-1.90
2022-12-27T06:38:54.886Z,-2.90
2022-12-27T06:41:22.493Z,-2.80
2022-12-27T06:43:55.277Z,-2.50
2022-12-27T06:46:26.113Z,-2.90
2022-12-27T06:48:53.730Z,-2.90
2022-12-27T06:51:21.648Z,-2.90
2022-12-27T06:53:49.782Z,-2.70
2022-12-27T06:56:22.584Z,-2.80
2022-12-27T06:58:51.137Z,-2.60
2022-12-27T07:01:27.271Z,-2.60
2022-12-27T07:03:57.876Z,-2.80
2022-12-27T07:06:27.129Z,-2.00
2022-12-27T07:08:55.071Z,-2.70
2022-12-27T07:11:23.446Z,-1.70
2022-12-27T07:13:53.501Z,-2.60
2022-12-27T07:16:24.625Z,-2.60
2022-12-27T07:18:53.031Z,-2.40
2022-12-27T07:21:22.962Z,-2.60
2022-12-27T07:23:51.184Z,-2.80
2022-12-27T07:26:21.958Z,-2.30
2022-12-27T07:28:49.616Z,-0.70
2022-12-27T07:31:20.464Z,-2.20
2022-12-27T07:33:48.258Z,-2.50
2022-12-27T07:36:17.955Z,-2.20
2022-12-27T07:38:46.071Z,-2.10
2022-12-27T07:41:14.293Z,-2.80
2022-12-27T07:43:44.451Z,-2.30
2022-12-27T07:46:17.285Z,-2.10
2022-12-27T07:48:45.289Z,-2.30
2022-12-27T07:51:13.162Z,-2.30
2022-12-27T07:53:41.054Z,-2.20
2022-12-27T07:56:14.813Z,-2.10
2022-12-27T07:58:46.347Z,-1.80
2022-12-27T08:01:14.940Z,-2.10
2022-12-27T08:03:42.872Z,-1.90
2022-12-27T08:06:29.945Z,-1.80
2022-12-27T08:09:05.112Z,-1.70
2022-12-27T08:11:32.715Z,-2.10
2022-12-27T08:14:00.602Z,-1.80
2022-12-27T08:16:28.209Z,-1.90
2022-12-27T08:18:56.370Z,-2.80
2022-12-27T08:21:24.058Z,-1.60
2022-12-27T08:23:51.618Z,0.60
2022-12-27T08:26:18.976Z,-1.70
2022-12-27T08:28:46.724Z,-1.40
2022-12-27T08:31:14.626Z,-1.60
2022-12-27T08:33:42.439Z,-1.60
2022-12-27T08:39:01.072Z,-1.40
2022-12-27T08:41:28.562Z,0.40
2022-12-27T08:43:56.041Z,-1.10
2022-12-27T08:46:23.460Z,-1.30
2022-12-27T08:48:51.661Z,-1.20
2022-12-27T08:51:31.235Z,-0.10
2022-12-27T08:54:03.087Z,-1.20
2022-12-27T08:56:30.508Z,-0.90
2022-12-27T08:58:57.887Z,0.10
2022-12-27T09:01:26.169Z,-1.00
2022-12-27T09:03:53.821Z,-1.20
2022-12-27T09:06:23.147Z,0.50
2022-12-27T09:08:52.101Z,-1.50
2022-12-27T09:11:22.497Z,-1.00
2022-12-27T09:13:50.396Z,-0.60
2022-12-27T09:16:21.288Z,-0.70
2022-12-27T09:18:51.548Z,-0.90
2022-12-27T09:21:21.322Z,-0.90
2022-12-27T09:23:49.908Z,-1.40
2022-12-27T09:26:20.162Z,0.60
2022-12-27T09:28:47.986Z,-0.90
2022-12-27T09:31:16.370Z,0.60
2022-12-27T09:33:44.325Z,-1.00
2022-12-27T09:36:14.319Z,-0.70
2022-12-27T09:38:43.009Z,-0.60
2022-12-27T09:41:40.927Z,-0.70
2022-12-27T09:44:34.032Z,1.60
2022-12-27T09:47:31.734Z,-0.50
2022-12-27T09:50:09.599Z,-0.30
2022-12-27T09:52:42.032Z,-0.40
2022-12-27T09:55:20.814Z,1.10
2022-12-27T09:57:51.165Z,-0.40
2022-12-27T10:00:34.310Z,-0.60
2022-12-27T10:03:05.642Z,-0.60
2022-12-27T10:05:37.241Z,-0.60
2022-12-27T10:08:28.113Z,-0.30
2022-12-27T10:11:04.542Z,-0.40
2022-12-27T10:13:43.347Z,-0.30
2022-12-27T10:16:16.915Z,-0.20
2022-12-27T10:18:48.713Z,-0.20
2022-12-27T10:21:24.951Z,1.60
2022-12-27T10:23:56.758Z,-0.30
2022-12-27T10:26:24.250Z,1.40
2022-12-27T10:29:04.392Z,-0.20
2022-12-27T10:31:32.624Z,1.60
2022-12-27T10:34:00.656Z,0.20
2022-12-27T10:36:30.999Z,1.20
2022-12-27T10:38:58.609Z,-0.10
2022-12-27T10:42:03.222Z,0.10
2022-12-27T10:44:30.781Z,0.20
2022-12-27T10:46:59.256Z,0.30
2022-12-27T10:49:32.217Z,0.10
2022-12-27T10:52:22.543Z,0.30
2022-12-27T10:54:55.100Z,0.50
2022-12-27T10:57:34.212Z,0.70
2022-12-27T11:00:13.851Z,0.50
2022-12-27T11:02:50.406Z,0.90
2022-12-27T11:05:29.894Z,1.40
2022-12-27T11:07:57.413Z,0.60
2022-12-27T11:10:28.752Z,1.90
2022-12-27T11:13:03.696Z,2.30
2022-12-27T11:15:37.672Z,0.80
2022-12-27T11:18:19.027Z,0.90
2022-12-27T11:20:52.738Z,1.00
2022-12-27T11:23:22.995Z,2.60
2022-12-27T11:25:53.426Z,2.50
2022-12-27T11:28:29.089Z,2.80
2022-12-27T11:30:59.437Z,3.00
2022-12-27T11:33:37.653Z,2.60
2022-12-27T11:36:06.782Z,1.20
2022-12-27T11:38:36.530Z,1.40
2022-12-27T11:41:16.336Z,1.30
2022-12-27T11:43:53.413Z,1.70
2022-12-27T11:46:27.545Z,2.40
2022-12-27T11:48:58.675Z,1.70
2022-12-27T11:51:49.829Z,2.60
2022-12-27T11:54:53.950Z,2.30
2022-12-27T11:58:00.651Z,1.80
2022-12-27T12:00:36.804Z,2.10
2022-12-27T12:03:34.990Z,2.90
2022-12-27T12:06:34.252Z,1.80
2022-12-27T12:09:10.659Z,2.00
2022-12-27T12:11:55.211Z,1.80
2022-12-27T12:14:54.742Z,3.50
2022-12-27T12:17:55.306Z,1.90
2022-12-27T12:21:00.017Z,2.50
2022-12-27T12:23:45.988Z,1.80
2022-12-27T12:26:24.698Z,1.90
2022-12-27T12:29:05.402Z,2.00
2022-12-27T12:32:10.063Z,1.80
2022-12-27T12:34:54.098Z,1.90
2022-12-27T12:37:45.968Z,1.90
2022-12-27T12:40:24.473Z,1.80
2022-12-27T12:43:04.252Z,1.70
2022-12-27T12:45:34.603Z,2.60
2022-12-27T12:48:24.860Z,2.00
2022-12-27T12:51:04.224Z,1.90
2022-12-27T12:53:40.531Z,2.00
2022-12-27T12:56:11.403Z,2.20
2022-12-27T12:58:53.012Z,1.90
2022-12-27T13:01:45.150Z,3.10
2022-12-27T13:04:29.901Z,2.20
2022-12-27T13:07:06.022Z,2.20
2022-12-27T13:09:50.833Z,2.00
2022-12-27T13:12:37.205Z,2.20
2022-12-27T13:15:31.662Z,2.80
2022-12-27T13:18:06.428Z,1.90
2022-12-27T13:21:00.278Z,2.00
2022-12-27T13:23:46.393Z,2.60
2022-12-27T13:26:43.587Z,2.20
2022-12-27T13:29:53.432Z,2.60
2022-12-27T13:32:35.935Z,2.20
2022-12-27T13:35:11.791Z,2.00
2022-12-27T13:38:10.785Z,2.40
2022-12-27T13:43:30.997Z,2.00
2022-12-27T13:46:16.734Z,2.00
2022-12-27T13:48:47.115Z,2.00
2022-12-27T13:51:25.743Z,2.10
2022-12-27T13:54:19.629Z,2.00
2022-12-27T13:59:46.739Z,2.00
2022-12-27T14:02:38.732Z,2.00
2022-12-27T14:05:25.245Z,2.10
2022-12-27T14:08:21.114Z,2.10
2022-12-27T14:11:00.483Z,2.70
2022-12-27T14:13:35.041Z,1.90
2022-12-27T14:16:35.977Z,2.80
2022-12-27T14:19:32.739Z,2.20
2022-12-27T14:22:16.274Z,2.00
2022-12-27T14:24:46.321Z,1.90
2022-12-27T14:27:46.211Z,2.00
2022-12-27T14:30:32.008Z,2.60
2022-12-27T14:33:31.756Z,1.80
2022-12-27T14:36:19.979Z,2.20
2022-12-27T14:38:50.184Z,2.10
2022-12-27T14:41:41.786Z,2.00
2022-12-27T14:45:01.612Z,1.80
2022-12-27T14:47:52.322Z,2.20
2022-12-27T14:50:55.135Z,2.20
2022-12-27T14:53:45.614Z,2.40
2022-12-27T14:56:34.163Z,2.90
2022-12-27T14:59:07.393Z,2.30
2022-12-27T15:01:57.740Z,3.00
2022-12-27T15:04:39.139Z,2.70
2022-12-27T15:07:21.930Z,2.60
2022-12-27T15:10:13.335Z,2.50
2022-12-27T15:12:43.785Z,2.20
2022-12-27T15:15:19.503Z,2.80
2022-12-27T15:18:05.948Z,2.00
2022-12-27T15:20:36.256Z,1.90
2022-12-27T15:23:03.636Z,2.10
2022-12-27T15:25:46.337Z,2.10
2022-12-27T15:28:37.009Z,2.70
2022-12-27T15:31:32.757Z,2.20
2022-12-27T15:34:24.484Z,2.20
2022-12-27T15:36:52.137Z,1.90
2022-12-27T15:39:34.752Z,2.10
2022-12-27T15:42:02.087Z,2.80
2022-12-27T15:44:54.371Z,2.10
2022-12-27T15:47:43.440Z,2.20
2022-12-27T15:50:21.805Z,2.20
2022-12-27T15:53:09.885Z,2.80
2022-12-27T15:56:11.347Z,2.20
2022-12-27T15:58:39.140Z,2.00
2022-12-27T16:01:27.816Z,2.10
2022-12-27T16:03:58.639Z,1.90
2022-12-27T16:06:35.347Z,2.30
2022-12-27T16:09:25.188Z,1.90
2022-12-27T16:12:04.181Z,2.40
2022-12-27T16:14:34.719Z,2.30
2022-12-27T16:17:10.814Z,2.40
2022-12-27T16:20:18.319Z,2.20
2022-12-27T16:23:03.112Z,2.30
2022-12-27T16:25:42.792Z,2.50
2022-12-27T16:28:24.019Z,2.50
2022-12-27T16:30:55.255Z,3.00
2022-12-27T16:33:33.636Z,2.90
2022-12-27T16:36:13.692Z,3.20
2022-12-27T16:39:04.348Z,2.80
2022-12-27T16:41:47.090Z,2.40
2022-12-27T16:44:26.141Z,2.50
2022-12-27T16:46:56.916Z,3.30
2022-12-27T16:49:24.467Z,2.30
2022-12-27T16:52:17.867Z,2.50
2022-12-27T16:54:52.346Z,3.10
2022-12-27T16:57:22.483Z,2.30
2022-12-27T17:00:11.236Z,2.40
2022-12-27T17:02:44.697Z,2.50
2022-12-27T17:05:15.215Z,2.20
2022-12-27T17:07:56.151Z,2.60
2022-12-27T17:10:35.570Z,2.50
2022-12-27T17:13:20.447Z,3.20
2022-12-27T17:16:01.303Z,2.80
2022-12-27T17:18:39.364Z,3.00
2022-12-27T17:21:14.169Z,2.70
2022-12-27T17:23:46.386Z,3.00
2022-12-27T17:26:16.644Z,3.50
2022-12-27T17:29:01.607Z,2.60
2022-12-27T17:31:39.892Z,2.50
2022-12-27T17:34:30.755Z,3.10
2022-12-27T17:37:25.301Z,2.50
2022-12-27T17:40:14.295Z,2.70
2022-12-27T17:43:30.155Z,2.50
2022-12-27T17:46:16.718Z,3.00
2022-12-27T17:48:45.898Z,2.40
2022-12-27T17:51:18.595Z,2.50
2022-12-27T17:54:07.526Z,3.00
2022-12-27T17:57:17.830Z,2.80
2022-12-27T17:59:49.220Z,2.50
2022-12-27T18:02:25.246Z,2.70
2022-12-27T18:04:56.333Z,3.10
2022-12-27T18:07:32.770Z,2.90
2022-12-27T18:10:05.075Z,2.90
2022-12-27T18:12:38.426Z,2.30
2022-12-27T18:15:12.764Z,2.60
2022-12-27T18:17:43.841Z,2.40
2022-12-27T18:20:28.168Z,3.00
2022-12-27T18:23:01.670Z,2.40
2022-12-27T18:25:40.321Z,3.00
2022-12-27T18:28:20.087Z,2.50
2022-12-27T18:31:09.367Z,2.40
2022-12-27T18:33:53.088Z,2.30
2022-12-27T18:36:29.360Z,2.30
2022-12-27T18:39:03.404Z,2.50
2022-12-27T18:41:47.486Z,3.00
2022-12-27T18:44:31.109Z,2.70
2022-12-27T18:47:01.665Z,2.90
2022-12-27T18:49:37.130Z,3.30
2022-12-27T18:52:30.228Z,2.80
2022-12-27T18:55:13.858Z,1.80
2022-12-27T18:57:41.333Z,2.70
2022-12-27T19:00:23.189Z,2.90
2022-12-27T19:02:51.869Z,2.10
2022-12-27T19:05:19.433Z,3.60
2022-12-27T19:07:54.756Z,3.20
2022-12-27T19:10:25.345Z,2.80
2022-12-27T19:12:53.899Z,3.70
2022-12-27T19:15:37.197Z,3.20
2022-12-27T19:18:19.262Z,2.40
2022-12-27T19:20:57.096Z,2.30
2022-12-27T19:23:34.675Z,2.40
2022-12-27T19:26:22.133Z,2.90
2022-12-27T19:29:17.123Z,3.40
2022-12-27T19:31:52.843Z,2.30
2022-12-27T19:34:21.371Z,2.60
2022-12-27T19:36:49.711Z,2.40
2022-12-27T19:39:24.047Z,2.90
2022-12-27T19:41:52.161Z,3.00
2022-12-27T19:44:20.072Z,3.20
2022-12-27T19:46:47.938Z,3.30
2022-12-27T19:49:40.865Z,3.20
2022-12-27T19:54:30.736Z,2.30
2022-12-27T19:56:58.103Z,2.50
2022-12-27T19:59:25.619Z,2.50
2022-12-27T20:01:53.484Z,2.50
2022-12-27T20:04:21.192Z,2.60
2022-12-27T20:06:49.356Z,2.40
2022-12-27T20:09:19.375Z,2.50
2022-12-27T20:11:49.573Z,3.10
2022-12-27T20:14:18.036Z,3.30
2022-12-27T20:16:47.018Z,2.60
2022-12-27T20:19:18.056Z,2.90
2022-12-27T20:21:45.753Z,2.90
2022-12-27T20:24:14.155Z,3.20
2022-12-27T20:26:42.856Z,2.50
2022-12-27T20:29:11.504Z,3.90
2022-12-27T20:31:44.676Z,3.20
2022-12-27T20:34:13.232Z,2.50
2022-12-27T20:36:42.140Z,2.50
2022-12-27T20:39:09.857Z,2.30
2022-12-27T20:41:37.602Z,2.90
2022-12-27T20:44:05.662Z,2.60
2022-12-27T20:46:32.982Z,2.60
2022-12-27T20:49:00.836Z,2.70
2022-12-27T20:51:31.869Z,2.60
2022-12-27T20:54:01.423Z,2.30
2022-12-27T20:56:29.012Z,3.50
2022-12-27T20:58:56.438Z,2.70
2022-12-27T21:01:26.823Z,2.90
2022-12-27T21:03:56.198Z,4.00
2022-12-27T21:06:26.431Z,3.20
2022-12-27T21:08:57.129Z,2.40
2022-12-27T21:11:29.138Z,2.30
2022-12-27T21:13:56.754Z,2.70
2022-12-27T21:16:27.768Z,3.20
2022-12-27T21:18:55.873Z,3.00
2022-12-27T21:21:27.930Z,3.10
2022-12-27T21:23:58.107Z,3.10
2022-12-27T21:26:31.385Z,3.10
2022-12-27T21:29:00.888Z,2.40
2022-12-27T21:31:30.731Z,2.90
2022-12-27T21:34:01.784Z,2.60
2022-12-27T21:36:32.011Z,3.90
2022-12-27T21:38:59.803Z,2.90
2022-12-27T21:41:29.959Z,3.00
2022-12-27T21:43:57.584Z,2.80
2022-12-27T21:46:30.880Z,2.20
2022-12-27T21:49:00.795Z,1.50
2022-12-27T21:51:29.394Z,2.10
2022-12-27T21:53:57.221Z,3.10
2022-12-27T21:56:25.315Z,1.10
2022-12-27T21:58:57.066Z,3.30
2022-12-27T22:01:30.484Z,2.60
2022-12-27T22:04:17.691Z,3.50
2022-12-27T22:06:47.524Z,3.10
2022-12-27T22:09:15.844Z,3.00
2022-12-27T22:11:43.308Z,3.60
2022-12-27T22:14:10.849Z,2.10
2022-12-27T22:16:39.480Z,1.90
2022-12-27T22:19:09.037Z,2.50
2022-12-27T22:21:37.780Z,1.90
2022-12-27T22:24:06.239Z,2.50
2022-12-27T22:26:39.499Z,1.90
2022-12-27T22:29:08.176Z,3.50
2022-12-27T22:31:37.957Z,1.90
2022-12-27T22:34:06.541Z,1.70
2022-12-27T22:36:34.376Z,1.70
2022-12-27T22:39:02.931Z,3.20
2022-12-27T22:41:33.582Z,3.10
2022-12-27T22:44:03.225Z,1.60
2022-12-27T22:46:51.186Z,1.50
2022-12-27T22:49:18.875Z,2.30
2022-12-27T22:51:46.298Z,1.60
2022-12-27T22:54:13.735Z,1.80
2022-12-27T22:56:42.376Z,2.00
2022-12-27T22:59:12.231Z,1.50
2022-12-27T23:01:41.129Z,3.20
2022-12-27T23:04:11.207Z,2.80
2022-12-27T23:06:40.195Z,1.70
2022-12-27T23:09:08.105Z,2.70
2022-12-27T23:11:37.807Z,1.50
2022-12-27T23:14:15.086Z,2.50
2022-12-27T23:16:44.947Z,1.50
2022-12-27T23:19:14.150Z,2.30
2022-12-27T23:21:41.712Z,3.30
2022-12-27T23:24:10.288Z,1.60
2022-12-27T23:26:38.329Z,2.30
2022-12-27T23:29:07.203Z,1.40
2022-12-27T23:31:35.016Z,2.40
2022-12-27T23:34:02.392Z,3.00
2022-12-27T23:36:31.875Z,1.50
2022-12-27T23:39:02.369Z,1.80
2022-12-27T23:41:29.707Z,1.10
2022-12-27T23:44:00.560Z,2.80
2022-12-27T23:46:31.033Z,2.30
2022-12-27T23:48:59.981Z,1.60
2022-12-27T23:51:28.609Z,2.60
2022-12-27T23:53:56.279Z,1.50
2022-12-27T23:56:32.627Z,1.40
2022-12-27T23:59:01.578Z,1.80
